Fenter, Arkansas
Current Conditions -  °F | °C
As of 9:53 PM on Friday 19 Dec 2014 (Local Time) from KHOT Reporting Station
Overcast Overcast  
Wind Chill: 36°   Ceiling: 4800
Heat Index: 41°   Visibility: 7mi
Dew Point: 38°   Wind: 8mph
Humidity: 89%   Direction: 80°E
Pressure: 30.22"   Gusts: NA
Location:  34.445°N, 92.6447°W
Report Text: KHOT 200353Z AUTO 08007KT 7SM SCT009 OVC048 05/03 A3022 RMK AO2 SLP234 T00500033
Loading
Personal Weather Stations






























Interactive Weather Map New forecast layout! Learn more

10-Day Weather Forecast

Advertisements
Track Severe Weather on mobile